sensor_id;sensor_type;location;lat;lon;timestamp;P1;durP1;ratioP1;P2;durP2;ratioP2
10122;SDS011;5101;49.038;8.710;2023-02-28T00:00:30;2.53;;;2.23;;
10122;SDS011;5101;49.038;8.710;2023-02-28T00:02:56;2.43;;;2.17;;
10122;SDS011;5101;49.038;8.710;2023-02-28T00:05:22;5.10;;;2.47;;
10122;SDS011;5101;49.038;8.710;2023-02-28T00:07:49;4.23;;;2.40;;
10122;SDS011;5101;49.038;8.710;2023-02-28T00:10:16;4.00;;;2.77;;
10122;SDS011;5101;49.038;8.710;2023-02-28T00:12:48;2.97;;;2.17;;
10122;SDS011;5101;49.038;8.710;2023-02-28T00:15:17;3.37;;;2.37;;
10122;SDS011;5101;49.038;8.710;2023-02-28T00:17:43;3.37;;;2.30;;
10122;SDS011;5101;49.038;8.710;2023-02-28T00:20:09;2.83;;;2.37;;
10122;SDS011;5101;49.038;8.710;2023-02-28T00:22:37;3.37;;;2.60;;
10122;SDS011;5101;49.038;8.710;2023-02-28T00:25:04;3.70;;;2.60;;
10122;SDS011;5101;49.038;8.710;2023-02-28T00:27:31;4.77;;;2.90;;
10122;SDS011;5101;49.038;8.710;2023-02-28T00:29:57;3.60;;;2.67;;
10122;SDS011;5101;49.038;8.710;2023-02-28T00:32:23;4.50;;;2.40;;
10122;SDS011;5101;49.038;8.710;2023-02-28T00:34:48;2.77;;;2.20;;
10122;SDS011;5101;49.038;8.710;2023-02-28T00:37:14;2.67;;;2.10;;
10122;SDS011;5101;49.038;8.710;2023-02-28T00:39:40;3.47;;;2.47;;
10122;SDS011;5101;49.038;8.710;2023-02-28T00:42:05;3.73;;;2.70;;
10122;SDS011;5101;49.038;8.710;2023-02-28T00:44:32;4.40;;;2.37;;
10122;SDS011;5101;49.038;8.710;2023-02-28T00:46:58;2.90;;;2.30;;
10122;SDS011;5101;49.038;8.710;2023-02-28T00:49:25;6.00;;;2.47;;
10122;SDS011;5101;49.038;8.710;2023-02-28T00:51:51;4.23;;;2.70;;
10122;SDS011;5101;49.038;8.710;2023-02-28T00:54:17;3.77;;;2.20;;
10122;SDS011;5101;49.038;8.710;2023-02-28T00:56:43;4.80;;;2.63;;
10122;SDS011;5101;49.038;8.710;2023-02-28T00:59:08;3.37;;;2.40;;
10122;SDS011;5101;49.038;8.710;2023-02-28T01:01:34;3.67;;;2.73;;
10122;SDS011;5101;49.038;8.710;2023-02-28T01:04:00;4.90;;;2.40;;
10122;SDS011;5101;49.038;8.710;2023-02-28T01:06:25;3.00;;;2.23;;
10122;SDS011;5101;49.038;8.710;2023-02-28T01:08:51;3.60;;;2.50;;
10122;SDS011;5101;49.038;8.710;2023-02-28T01:11:17;3.77;;;2.33;;
10122;SDS011;5101;49.038;8.710;2023-02-28T01:13:43;2.53;;;2.20;;
10122;SDS011;5101;49.038;8.710;2023-02-28T01:16:10;5.53;;;2.33;;
10122;SDS011;5101;49.038;8.710;2023-02-28T01:18:36;3.47;;;2.43;;
10122;SDS011;5101;49.038;8.710;2023-02-28T01:21:06;2.37;;;2.17;;
10122;SDS011;5101;49.038;8.710;2023-02-28T01:23:33;3.83;;;2.60;;
10122;SDS011;5101;49.038;8.710;2023-02-28T01:28:36;2.47;;;2.20;;
10122;SDS011;5101;49.038;8.710;2023-02-28T01:31:01;2.53;;;2.30;;
10122;SDS011;5101;49.038;8.710;2023-02-28T01:33:27;2.93;;;2.60;;
10122;SDS011;5101;49.038;8.710;2023-02-28T01:38:26;3.30;;;2.50;;
10122;SDS011;5101;49.038;8.710;2023-02-28T01:40:52;3.57;;;2.20;;
10122;SDS011;5101;49.038;8.710;2023-02-28T01:43:22;2.47;;;2.27;;
10122;SDS011;5101;49.038;8.710;2023-02-28T01:45:52;2.63;;;2.40;;
10122;SDS011;5101;49.038;8.710;2023-02-28T01:48:21;3.40;;;2.43;;
10122;SDS011;5101;49.038;8.710;2023-02-28T01:51:00;3.13;;;2.20;;
10122;SDS011;5101;49.038;8.710;2023-02-28T01:53:32;3.10;;;2.33;;
10122;SDS011;5101;49.038;8.710;2023-02-28T01:56:01;2.60;;;2.40;;
10122;SDS011;5101;49.038;8.710;2023-02-28T01:58:30;3.20;;;2.80;;
10122;SDS011;5101;49.038;8.710;2023-02-28T02:00:55;3.10;;;2.40;;
10122;SDS011;5101;49.038;8.710;2023-02-28T02:03:22;4.33;;;2.23;;
10122;SDS011;5101;49.038;8.710;2023-02-28T02:05:48;2.63;;;2.20;;
10122;SDS011;5101;49.038;8.710;2023-02-28T02:08:18;2.67;;;2.40;;
10122;SDS011;5101;49.038;8.710;2023-02-28T02:10:56;3.77;;;3.00;;
10122;SDS011;5101;49.038;8.710;2023-02-28T02:13:27;2.97;;;2.67;;
10122;SDS011;5101;49.038;8.710;2023-02-28T02:21:59;3.40;;;2.63;;
10122;SDS011;5101;49.038;8.710;2023-02-28T02:27:23;5.33;;;2.83;;
10122;SDS011;5101;49.038;8.710;2023-02-28T02:38:46;3.53;;;2.67;;
10122;SDS011;5101;49.038;8.710;2023-02-28T02:41:27;3.43;;;2.60;;
10122;SDS011;5101;49.038;8.710;2023-02-28T02:44:07;6.47;;;2.80;;
10122;SDS011;5101;49.038;8.710;2023-02-28T02:46:41;4.67;;;2.90;;
10122;SDS011;5101;49.038;8.710;2023-02-28T02:49:11;3.30;;;2.77;;
10122;SDS011;5101;49.038;8.710;2023-02-28T02:51:41;3.83;;;2.87;;
10122;SDS011;5101;49.038;8.710;2023-02-28T02:54:11;3.00;;;2.70;;
10122;SDS011;5101;49.038;8.710;2023-02-28T02:56:40;3.17;;;2.77;;
10122;SDS011;5101;49.038;8.710;2023-02-28T02:59:09;5.37;;;2.77;;
10122;SDS011;5101;49.038;8.710;2023-02-28T03:01:37;3.17;;;2.43;;
10122;SDS011;5101;49.038;8.710;2023-02-28T03:04:09;4.73;;;3.00;;
10122;SDS011;5101;49.038;8.710;2023-02-28T03:06:37;2.90;;;2.30;;
10122;SDS011;5101;49.038;8.710;2023-02-28T03:09:03;3.73;;;2.70;;
10122;SDS011;5101;49.038;8.710;2023-02-28T03:11:29;3.13;;;2.60;;
10122;SDS011;5101;49.038;8.710;2023-02-28T03:14:03;3.93;;;2.60;;
10122;SDS011;5101;49.038;8.710;2023-02-28T03:16:38;5.23;;;3.00;;
10122;SDS011;5101;49.038;8.710;2023-02-28T03:19:30;4.27;;;3.07;;
10122;SDS011;5101;49.038;8.710;2023-02-28T03:22:32;3.50;;;2.53;;
10122;SDS011;5101;49.038;8.710;2023-02-28T03:27:57;3.43;;;2.90;;
10122;SDS011;5101;49.038;8.710;2023-02-28T03:30:41;3.70;;;3.10;;
10122;SDS011;5101;49.038;8.710;2023-02-28T03:33:19;5.30;;;3.23;;
10122;SDS011;5101;49.038;8.710;2023-02-28T03:36:10;4.17;;;3.10;;
10122;SDS011;5101;49.038;8.710;2023-02-28T03:38:47;4.37;;;3.30;;
10122;SDS011;5101;49.038;8.710;2023-02-28T03:41:22;3.67;;;3.07;;
10122;SDS011;5101;49.038;8.710;2023-02-28T03:43:53;3.70;;;3.20;;
10122;SDS011;5101;49.038;8.710;2023-02-28T03:46:31;3.83;;;3.23;;
10122;SDS011;5101;49.038;8.710;2023-02-28T03:49:08;3.57;;;3.03;;
10122;SDS011;5101;49.038;8.710;2023-02-28T03:51:43;4.63;;;3.30;;
10122;SDS011;5101;49.038;8.710;2023-02-28T03:54:18;3.40;;;3.10;;
10122;SDS011;5101;49.038;8.710;2023-02-28T03:56:51;4.00;;;3.30;;
10122;SDS011;5101;49.038;8.710;2023-02-28T03:59:28;3.73;;;3.00;;
10122;SDS011;5101;49.038;8.710;2023-02-28T04:01:59;4.10;;;2.87;;
10122;SDS011;5101;49.038;8.710;2023-02-28T04:04:25;4.27;;;3.00;;
10122;SDS011;5101;49.038;8.710;2023-02-28T04:06:51;3.17;;;2.87;;
10122;SDS011;5101;49.038;8.710;2023-02-28T04:09:18;3.67;;;3.00;;
10122;SDS011;5101;49.038;8.710;2023-02-28T04:11:44;4.50;;;3.27;;
10122;SDS011;5101;49.038;8.710;2023-02-28T04:14:13;3.20;;;2.90;;
10122;SDS011;5101;49.038;8.710;2023-02-28T04:16:40;2.90;;;2.40;;
10122;SDS011;5101;49.038;8.710;2023-02-28T04:19:07;4.10;;;3.20;;
10122;SDS011;5101;49.038;8.710;2023-02-28T04:21:35;4.90;;;3.70;;
10122;SDS011;5101;49.038;8.710;2023-02-28T04:24:04;6.23;;;3.53;;
10122;SDS011;5101;49.038;8.710;2023-02-28T04:26:31;4.93;;;3.50;;
10122;SDS011;5101;49.038;8.710;2023-02-28T04:28:59;4.47;;;3.20;;
10122;SDS011;5101;49.038;8.710;2023-02-28T04:31:25;3.77;;;3.27;;
10122;SDS011;5101;49.038;8.710;2023-02-28T04:33:51;3.90;;;3.50;;
10122;SDS011;5101;49.038;8.710;2023-02-28T04:36:16;4.77;;;3.90;;
10122;SDS011;5101;49.038;8.710;2023-02-28T04:38:45;5.17;;;3.60;;
10122;SDS011;5101;49.038;8.710;2023-02-28T04:41:12;5.27;;;3.33;;
10122;SDS011;5101;49.038;8.710;2023-02-28T04:43:38;4.97;;;3.73;;
10122;SDS011;5101;49.038;8.710;2023-02-28T04:46:04;4.60;;;3.20;;
10122;SDS011;5101;49.038;8.710;2023-02-28T04:48:31;5.47;;;3.43;;
10122;SDS011;5101;49.038;8.710;2023-02-28T04:51:06;4.67;;;3.27;;
10122;SDS011;5101;49.038;8.710;2023-02-28T04:53:34;4.57;;;3.47;;
10122;SDS011;5101;49.038;8.710;2023-02-28T04:56:01;4.60;;;4.10;;
10122;SDS011;5101;49.038;8.710;2023-02-28T04:58:27;4.63;;;3.43;;
10122;SDS011;5101;49.038;8.710;2023-02-28T05:00:53;5.83;;;3.80;;
10122;SDS011;5101;49.038;8.710;2023-02-28T05:03:19;4.23;;;3.50;;
10122;SDS011;5101;49.038;8.710;2023-02-28T05:05:48;5.17;;;3.53;;
10122;SDS011;5101;49.038;8.710;2023-02-28T05:08:14;4.23;;;3.20;;
10122;SDS011;5101;49.038;8.710;2023-02-28T05:10:39;4.97;;;3.73;;
10122;SDS011;5101;49.038;8.710;2023-02-28T05:13:05;3.93;;;3.53;;
10122;SDS011;5101;49.038;8.710;2023-02-28T05:15:30;4.43;;;3.53;;
10122;SDS011;5101;49.038;8.710;2023-02-28T05:17:56;5.77;;;3.97;;
10122;SDS011;5101;49.038;8.710;2023-02-28T05:20:21;4.50;;;3.43;;
10122;SDS011;5101;49.038;8.710;2023-02-28T05:22:47;6.07;;;4.20;;
10122;SDS011;5101;49.038;8.710;2023-02-28T05:25:16;6.47;;;4.13;;
10122;SDS011;5101;49.038;8.710;2023-02-28T05:27:44;7.80;;;4.90;;
10122;SDS011;5101;49.038;8.710;2023-02-28T05:30:09;6.37;;;4.40;;
10122;SDS011;5101;49.038;8.710;2023-02-28T05:32:36;6.93;;;4.40;;
10122;SDS011;5101;49.038;8.710;2023-02-28T05:35:02;7.80;;;4.60;;
10122;SDS011;5101;49.038;8.710;2023-02-28T05:37:28;5.40;;;4.07;;
10122;SDS011;5101;49.038;8.710;2023-02-28T05:39:54;6.10;;;4.30;;
10122;SDS011;5101;49.038;8.710;2023-02-28T05:42:19;6.63;;;4.40;;
10122;SDS011;5101;49.038;8.710;2023-02-28T05:44:45;4.70;;;3.53;;
10122;SDS011;5101;49.038;8.710;2023-02-28T05:47:11;6.40;;;3.93;;
10122;SDS011;5101;49.038;8.710;2023-02-28T05:49:40;4.53;;;3.80;;
10122;SDS011;5101;49.038;8.710;2023-02-28T05:52:06;6.40;;;4.00;;
10122;SDS011;5101;49.038;8.710;2023-02-28T05:54:31;4.77;;;3.80;;
10122;SDS011;5101;49.038;8.710;2023-02-28T05:56:57;5.63;;;3.83;;
10122;SDS011;5101;49.038;8.710;2023-02-28T05:59:23;5.50;;;4.00;;
10122;SDS011;5101;49.038;8.710;2023-02-28T06:01:48;5.40;;;4.00;;
10122;SDS011;5101;49.038;8.710;2023-02-28T06:04:14;5.80;;;3.33;;
10122;SDS011;5101;49.038;8.710;2023-02-28T06:06:44;4.60;;;3.63;;
10122;SDS011;5101;49.038;8.710;2023-02-28T06:09:11;5.83;;;3.70;;
10122;SDS011;5101;49.038;8.710;2023-02-28T06:11:36;7.17;;;4.10;;
10122;SDS011;5101;49.038;8.710;2023-02-28T06:14:02;5.67;;;4.17;;
10122;SDS011;5101;49.038;8.710;2023-02-28T06:16:28;6.50;;;3.93;;
10122;SDS011;5101;49.038;8.710;2023-02-28T06:18:56;5.00;;;3.67;;
10122;SDS011;5101;49.038;8.710;2023-02-28T06:21:22;4.97;;;4.00;;
10122;SDS011;5101;49.038;8.710;2023-02-28T06:23:48;4.67;;;4.03;;
10122;SDS011;5101;49.038;8.710;2023-02-28T06:26:14;5.23;;;3.57;;
10122;SDS011;5101;49.038;8.710;2023-02-28T06:28:40;4.23;;;3.83;;
10122;SDS011;5101;49.038;8.710;2023-02-28T06:31:09;5.17;;;3.67;;
10122;SDS011;5101;49.038;8.710;2023-02-28T06:33:37;5.00;;;4.20;;
10122;SDS011;5101;49.038;8.710;2023-02-28T06:36:04;5.40;;;3.40;;
10122;SDS011;5101;49.038;8.710;2023-02-28T06:38:30;4.63;;;3.93;;
10122;SDS011;5101;49.038;8.710;2023-02-28T06:40:56;5.63;;;4.40;;
10122;SDS011;5101;49.038;8.710;2023-02-28T06:43:23;7.33;;;3.80;;
10122;SDS011;5101;49.038;8.710;2023-02-28T06:45:50;6.13;;;4.20;;
10122;SDS011;5101;49.038;8.710;2023-02-28T06:48:18;4.47;;;4.03;;
10122;SDS011;5101;49.038;8.710;2023-02-28T06:50:44;6.67;;;4.20;;
10122;SDS011;5101;49.038;8.710;2023-02-28T06:53:09;4.20;;;3.80;;
10122;SDS011;5101;49.038;8.710;2023-02-28T06:55:37;5.37;;;4.00;;
10122;SDS011;5101;49.038;8.710;2023-02-28T06:58:02;4.07;;;3.63;;
10122;SDS011;5101;49.038;8.710;2023-02-28T07:00:28;4.93;;;4.07;;
10122;SDS011;5101;49.038;8.710;2023-02-28T07:02:53;6.97;;;5.10;;
10122;SDS011;5101;49.038;8.710;2023-02-28T07:05:20;5.73;;;3.23;;
10122;SDS011;5101;49.038;8.710;2023-02-28T07:07:45;4.90;;;3.87;;
10122;SDS011;5101;49.038;8.710;2023-02-28T07:10:12;7.27;;;4.60;;
10122;SDS011;5101;49.038;8.710;2023-02-28T07:12:39;6.17;;;3.97;;
10122;SDS011;5101;49.038;8.710;2023-02-28T07:15:05;4.53;;;3.87;;
10122;SDS011;5101;49.038;8.710;2023-02-28T07:17:31;5.33;;;4.00;;
10122;SDS011;5101;49.038;8.710;2023-02-28T07:19:56;6.83;;;4.50;;
10122;SDS011;5101;49.038;8.710;2023-02-28T07:22:22;5.53;;;4.27;;
10122;SDS011;5101;49.038;8.710;2023-02-28T07:24:47;5.53;;;4.50;;
10122;SDS011;5101;49.038;8.710;2023-02-28T07:27:13;5.37;;;4.10;;
10122;SDS011;5101;49.038;8.710;2023-02-28T07:29:48;5.80;;;4.10;;
10122;SDS011;5101;49.038;8.710;2023-02-28T07:32:18;5.57;;;4.30;;
10122;SDS011;5101;49.038;8.710;2023-02-28T07:34:44;8.00;;;4.60;;
10122;SDS011;5101;49.038;8.710;2023-02-28T07:37:10;6.70;;;4.20;;
10122;SDS011;5101;49.038;8.710;2023-02-28T07:39:35;6.93;;;4.23;;
10122;SDS011;5101;49.038;8.710;2023-02-28T07:42:03;5.50;;;4.50;;
10122;SDS011;5101;49.038;8.710;2023-02-28T07:44:31;4.47;;;3.23;;
10122;SDS011;5101;49.038;8.710;2023-02-28T07:46:56;5.77;;;4.27;;
10122;SDS011;5101;49.038;8.710;2023-02-28T07:49:22;5.97;;;3.87;;
10122;SDS011;5101;49.038;8.710;2023-02-28T07:51:48;7.73;;;4.60;;
10122;SDS011;5101;49.038;8.710;2023-02-28T07:54:13;5.47;;;4.33;;
10122;SDS011;5101;49.038;8.710;2023-02-28T07:56:39;5.97;;;4.77;;
10122;SDS011;5101;49.038;8.710;2023-02-28T07:59:04;6.90;;;4.27;;
10122;SDS011;5101;49.038;8.710;2023-02-28T08:01:30;5.97;;;4.70;;
10122;SDS011;5101;49.038;8.710;2023-02-28T08:03:55;5.13;;;4.40;;
10122;SDS011;5101;49.038;8.710;2023-02-28T08:06:22;6.97;;;5.13;;
10122;SDS011;5101;49.038;8.710;2023-02-28T08:08:50;7.17;;;5.17;;
10122;SDS011;5101;49.038;8.710;2023-02-28T08:11:16;5.87;;;4.40;;
10122;SDS011;5101;49.038;8.710;2023-02-28T08:13:42;6.50;;;4.83;;
10122;SDS011;5101;49.038;8.710;2023-02-28T08:16:09;5.80;;;3.67;;
10122;SDS011;5101;49.038;8.710;2023-02-28T08:18:36;6.03;;;4.50;;
10122;SDS011;5101;49.038;8.710;2023-02-28T08:21:08;6.97;;;4.80;;
10122;SDS011;5101;49.038;8.710;2023-02-28T08:23:34;6.57;;;4.70;;
10122;SDS011;5101;49.038;8.710;2023-02-28T08:26:00;6.07;;;4.77;;
10122;SDS011;5101;49.038;8.710;2023-02-28T08:28:26;6.17;;;5.07;;
10122;SDS011;5101;49.038;8.710;2023-02-28T08:30:51;6.60;;;4.70;;
10122;SDS011;5101;49.038;8.710;2023-02-28T08:33:17;6.43;;;4.77;;
10122;SDS011;5101;49.038;8.710;2023-02-28T08:35:42;6.60;;;4.90;;
10122;SDS011;5101;49.038;8.710;2023-02-28T08:38:08;7.17;;;5.60;;
10122;SDS011;5101;49.038;8.710;2023-02-28T08:40:33;6.13;;;5.00;;
10122;SDS011;5101;49.038;8.710;2023-02-28T08:42:58;6.23;;;5.20;;
10122;SDS011;5101;49.038;8.710;2023-02-28T08:45:25;13.40;;;10.27;;
10122;SDS011;5101;49.038;8.710;2023-02-28T08:47:53;6.60;;;5.10;;
10122;SDS011;5101;49.038;8.710;2023-02-28T08:50:19;7.67;;;5.23;;
10122;SDS011;5101;49.038;8.710;2023-02-28T08:52:44;6.67;;;5.13;;
10122;SDS011;5101;49.038;8.710;2023-02-28T08:55:10;5.40;;;4.43;;
10122;SDS011;5101;49.038;8.710;2023-02-28T08:57:35;8.63;;;5.47;;
10122;SDS011;5101;49.038;8.710;2023-02-28T09:00:02;6.10;;;5.50;;
10122;SDS011;5101;49.038;8.710;2023-02-28T09:02:29;6.50;;;5.30;;
10122;SDS011;5101;49.038;8.710;2023-02-28T09:04:57;5.70;;;5.07;;
10122;SDS011;5101;49.038;8.710;2023-02-28T09:07:23;7.00;;;5.67;;
10122;SDS011;5101;49.038;8.710;2023-02-28T09:09:49;7.63;;;5.70;;
10122;SDS011;5101;49.038;8.710;2023-02-28T09:12:24;5.50;;;5.00;;
10122;SDS011;5101;49.038;8.710;2023-02-28T09:14:50;5.93;;;4.80;;
10122;SDS011;5101;49.038;8.710;2023-02-28T09:17:17;6.00;;;4.83;;
10122;SDS011;5101;49.038;8.710;2023-02-28T09:19:43;6.27;;;5.23;;
10122;SDS011;5101;49.038;8.710;2023-02-28T09:22:09;6.60;;;5.37;;
10122;SDS011;5101;49.038;8.710;2023-02-28T09:24:36;6.93;;;5.43;;
10122;SDS011;5101;49.038;8.710;2023-02-28T09:27:02;5.67;;;4.97;;
10122;SDS011;5101;49.038;8.710;2023-02-28T09:29:28;6.83;;;5.60;;
10122;SDS011;5101;49.038;8.710;2023-02-28T09:31:54;6.90;;;5.27;;
10122;SDS011;5101;49.038;8.710;2023-02-28T09:34:20;5.57;;;5.00;;
10122;SDS011;5101;49.038;8.710;2023-02-28T09:36:46;8.40;;;5.93;;
10122;SDS011;5101;49.038;8.710;2023-02-28T09:39:12;6.17;;;5.57;;
10122;SDS011;5101;49.038;8.710;2023-02-28T09:41:41;5.87;;;5.27;;
10122;SDS011;5101;49.038;8.710;2023-02-28T09:44:35;8.50;;;5.70;;
10122;SDS011;5101;49.038;8.710;2023-02-28T09:49:50;14.50;;;10.60;;
10122;SDS011;5101;49.038;8.710;2023-02-28T09:52:24;5.90;;;4.73;;
10122;SDS011;5101;49.038;8.710;2023-02-28T09:54:55;7.40;;;5.67;;
10122;SDS011;5101;49.038;8.710;2023-02-28T09:57:37;8.90;;;5.27;;
10122;SDS011;5101;49.038;8.710;2023-02-28T10:00:13;5.20;;;4.70;;
10122;SDS011;5101;49.038;8.710;2023-02-28T10:08:28;8.07;;;5.97;;
10122;SDS011;5101;49.038;8.710;2023-02-28T10:10:59;6.77;;;5.70;;
10122;SDS011;5101;49.038;8.710;2023-02-28T10:13:36;5.87;;;5.27;;
10122;SDS011;5101;49.038;8.710;2023-02-28T10:16:13;6.07;;;5.37;;
10122;SDS011;5101;49.038;8.710;2023-02-28T10:18:56;6.23;;;5.27;;
10122;SDS011;5101;49.038;8.710;2023-02-28T10:21:38;7.23;;;5.73;;
10122;SDS011;5101;49.038;8.710;2023-02-28T10:24:14;6.73;;;5.50;;
10122;SDS011;5101;49.038;8.710;2023-02-28T10:26:57;7.53;;;5.37;;
10122;SDS011;5101;49.038;8.710;2023-02-28T10:29:26;7.83;;;5.60;;
10122;SDS011;5101;49.038;8.710;2023-02-28T10:31:56;6.90;;;6.00;;
10122;SDS011;5101;49.038;8.710;2023-02-28T10:34:23;6.23;;;5.50;;
10122;SDS011;5101;49.038;8.710;2023-02-28T10:36:49;6.87;;;5.67;;
10122;SDS011;5101;49.038;8.710;2023-02-28T10:42:18;6.67;;;5.67;;
10122;SDS011;5101;49.038;8.710;2023-02-28T10:45:04;7.83;;;6.20;;
10122;SDS011;5101;49.038;8.710;2023-02-28T10:47:48;8.83;;;6.30;;
10122;SDS011;5101;49.038;8.710;2023-02-28T10:51:02;8.57;;;5.77;;
10122;SDS011;5101;49.038;8.710;2023-02-28T10:53:16;6.87;;;5.43;;
10122;SDS011;5101;49.038;8.710;2023-02-28T10:55:57;6.80;;;6.10;;
10122;SDS011;5101;49.038;8.710;2023-02-28T10:58:30;7.30;;;6.50;;
10122;SDS011;5101;49.038;8.710;2023-02-28T11:01:10;8.40;;;6.53;;
10122;SDS011;5101;49.038;8.710;2023-02-28T11:03:39;6.83;;;6.10;;
10122;SDS011;5101;49.038;8.710;2023-02-28T11:06:06;7.13;;;5.73;;
10122;SDS011;5101;49.038;8.710;2023-02-28T11:08:33;8.53;;;5.97;;
10122;SDS011;5101;49.038;8.710;2023-02-28T11:11:08;7.83;;;6.00;;
10122;SDS011;5101;49.038;8.710;2023-02-28T11:13:34;9.90;;;6.33;;
10122;SDS011;5101;49.038;8.710;2023-02-28T11:16:04;7.60;;;6.50;;
10122;SDS011;5101;49.038;8.710;2023-02-28T11:21:06;8.93;;;6.10;;
10122;SDS011;5101;49.038;8.710;2023-02-28T11:23:34;8.97;;;6.63;;
10122;SDS011;5101;49.038;8.710;2023-02-28T11:26:02;9.57;;;7.17;;
10122;SDS011;5101;49.038;8.710;2023-02-28T11:31:05;7.70;;;6.20;;
10122;SDS011;5101;49.038;8.710;2023-02-28T11:36:21;7.77;;;6.27;;
10122;SDS011;5101;49.038;8.710;2023-02-28T11:38:49;7.87;;;6.07;;
10122;SDS011;5101;49.038;8.710;2023-02-28T11:41:24;6.60;;;5.90;;
10122;SDS011;5101;49.038;8.710;2023-02-28T11:44:06;8.73;;;6.27;;
10122;SDS011;5101;49.038;8.710;2023-02-28T11:47:05;9.27;;;6.17;;
10122;SDS011;5101;49.038;8.710;2023-02-28T11:55:24;8.17;;;7.00;;
10122;SDS011;5101;49.038;8.710;2023-02-28T11:57:56;7.80;;;6.40;;
10122;SDS011;5101;49.038;8.710;2023-02-28T12:03:27;8.30;;;6.67;;
10122;SDS011;5101;49.038;8.710;2023-02-28T12:22:30;7.57;;;5.87;;
10122;SDS011;5101;49.038;8.710;2023-02-28T12:27:40;6.90;;;6.20;;
10122;SDS011;5101;49.038;8.710;2023-02-28T12:30:22;16.37;;;13.00;;
10122;SDS011;5101;49.038;8.710;2023-02-28T12:33:07;9.13;;;8.17;;
10122;SDS011;5101;49.038;8.710;2023-02-28T12:35:41;7.80;;;6.77;;
10122;SDS011;5101;49.038;8.710;2023-02-28T12:38:25;7.30;;;6.37;;
10122;SDS011;5101;49.038;8.710;2023-02-28T12:40:59;7.60;;;6.23;;
10122;SDS011;5101;49.038;8.710;2023-02-28T12:43:33;7.03;;;6.33;;
10122;SDS011;5101;49.038;8.710;2023-02-28T12:46:07;8.03;;;7.13;;
10122;SDS011;5101;49.038;8.710;2023-02-28T12:48:42;7.47;;;6.37;;
10122;SDS011;5101;49.038;8.710;2023-02-28T12:51:11;7.43;;;6.63;;
10122;SDS011;5101;49.038;8.710;2023-02-28T12:53:58;7.20;;;6.50;;
10122;SDS011;5101;49.038;8.710;2023-02-28T12:56:48;6.97;;;6.27;;
10122;SDS011;5101;49.038;8.710;2023-02-28T13:10:37;7.50;;;6.63;;
10122;SDS011;5101;49.038;8.710;2023-02-28T13:13:14;9.03;;;6.27;;
10122;SDS011;5101;49.038;8.710;2023-02-28T13:15:41;10.23;;;7.40;;
10122;SDS011;5101;49.038;8.710;2023-02-28T13:18:43;7.97;;;6.00;;
10122;SDS011;5101;49.038;8.710;2023-02-28T13:21:27;7.60;;;6.67;;
10122;SDS011;5101;49.038;8.710;2023-02-28T13:23:58;6.73;;;5.97;;
10122;SDS011;5101;49.038;8.710;2023-02-28T13:34:40;8.20;;;7.33;;
10122;SDS011;5101;49.038;8.710;2023-02-28T13:42:31;13.03;;;7.47;;
10122;SDS011;5101;49.038;8.710;2023-02-28T13:45:20;8.03;;;7.23;;
10122;SDS011;5101;49.038;8.710;2023-02-28T13:47:56;7.93;;;6.83;;
10122;SDS011;5101;49.038;8.710;2023-02-28T13:50:29;8.13;;;6.67;;
10122;SDS011;5101;49.038;8.710;2023-02-28T14:07:43;9.07;;;7.90;;
10122;SDS011;5101;49.038;8.710;2023-02-28T14:10:31;8.00;;;7.07;;
10122;SDS011;5101;49.038;8.710;2023-02-28T14:13:03;8.77;;;6.97;;
10122;SDS011;5101;49.038;8.710;2023-02-28T14:15:56;9.30;;;7.07;;
10122;SDS011;5101;49.038;8.710;2023-02-28T14:18:25;10.17;;;7.57;;
10122;SDS011;5101;49.038;8.710;2023-02-28T14:20:56;10.53;;;7.97;;
10122;SDS011;5101;49.038;8.710;2023-02-28T14:29:14;9.37;;;7.57;;
10122;SDS011;5101;49.038;8.710;2023-02-28T14:37:08;9.23;;;6.80;;
10122;SDS011;5101;49.038;8.710;2023-02-28T14:39:41;8.50;;;7.43;;
10122;SDS011;5101;49.038;8.710;2023-02-28T14:44:54;9.10;;;6.47;;
10122;SDS011;5101;49.038;8.710;2023-02-28T14:47:21;9.17;;;7.47;;
10122;SDS011;5101;49.038;8.710;2023-02-28T14:49:48;9.10;;;7.07;;
10122;SDS011;5101;49.038;8.710;2023-02-28T14:52:20;9.70;;;7.13;;
10122;SDS011;5101;49.038;8.710;2023-02-28T14:55:33;8.77;;;7.73;;
10122;SDS011;5101;49.038;8.710;2023-02-28T15:00:22;9.23;;;8.23;;
10122;SDS011;5101;49.038;8.710;2023-02-28T15:02:53;8.17;;;7.20;;
10122;SDS011;5101;49.038;8.710;2023-02-28T15:05:22;9.30;;;7.23;;
10122;SDS011;5101;49.038;8.710;2023-02-28T15:08:04;10.47;;;7.60;;
10122;SDS011;5101;49.038;8.710;2023-02-28T15:10:34;10.10;;;7.50;;
10122;SDS011;5101;49.038;8.710;2023-02-28T15:13:01;8.30;;;6.97;;
10122;SDS011;5101;49.038;8.710;2023-02-28T15:15:39;7.67;;;6.87;;
10122;SDS011;5101;49.038;8.710;2023-02-28T15:18:07;9.80;;;7.87;;
10122;SDS011;5101;49.038;8.710;2023-02-28T15:20:42;9.47;;;7.73;;
10122;SDS011;5101;49.038;8.710;2023-02-28T15:23:10;8.87;;;7.67;;
10122;SDS011;5101;49.038;8.710;2023-02-28T15:25:36;10.10;;;8.10;;
10122;SDS011;5101;49.038;8.710;2023-02-28T15:28:02;10.13;;;7.27;;
10122;SDS011;5101;49.038;8.710;2023-02-28T15:30:28;10.87;;;7.77;;
10122;SDS011;5101;49.038;8.710;2023-02-28T15:35:36;9.37;;;7.47;;
10122;SDS011;5101;49.038;8.710;2023-02-28T15:38:04;8.40;;;7.50;;
10122;SDS011;5101;49.038;8.710;2023-02-28T15:40:55;9.20;;;7.53;;
10122;SDS011;5101;49.038;8.710;2023-02-28T15:43:23;8.83;;;7.93;;
10122;SDS011;5101;49.038;8.710;2023-02-28T15:45:52;9.13;;;7.53;;
10122;SDS011;5101;49.038;8.710;2023-02-28T15:48:25;7.37;;;6.30;;
10122;SDS011;5101;49.038;8.710;2023-02-28T15:56:25;9.30;;;7.17;;
10122;SDS011;5101;49.038;8.710;2023-02-28T15:58:59;9.10;;;7.90;;
10122;SDS011;5101;49.038;8.710;2023-02-28T16:01:28;8.87;;;7.50;;
10122;SDS011;5101;49.038;8.710;2023-02-28T16:03:57;11.33;;;7.90;;
10122;SDS011;5101;49.038;8.710;2023-02-28T16:06:27;11.87;;;8.10;;
10122;SDS011;5101;49.038;8.710;2023-02-28T16:08:55;10.90;;;7.77;;
10122;SDS011;5101;49.038;8.710;2023-02-28T16:11:21;9.47;;;8.00;;
10122;SDS011;5101;49.038;8.710;2023-02-28T16:13:47;9.67;;;8.27;;
10122;SDS011;5101;49.038;8.710;2023-02-28T16:16:15;11.57;;;8.10;;
10122;SDS011;5101;49.038;8.710;2023-02-28T16:18:45;13.67;;;8.63;;
10122;SDS011;5101;49.038;8.710;2023-02-28T16:21:11;9.67;;;8.10;;
10122;SDS011;5101;49.038;8.710;2023-02-28T16:23:36;10.00;;;7.60;;
10122;SDS011;5101;49.038;8.710;2023-02-28T16:26:02;11.27;;;8.80;;
10122;SDS011;5101;49.038;8.710;2023-02-28T16:28:30;9.83;;;8.30;;
10122;SDS011;5101;49.038;8.710;2023-02-28T16:31:01;8.50;;;7.57;;
10122;SDS011;5101;49.038;8.710;2023-02-28T16:33:29;13.17;;;8.43;;
10122;SDS011;5101;49.038;8.710;2023-02-28T16:35:54;11.53;;;8.93;;
10122;SDS011;5101;49.038;8.710;2023-02-28T16:38:20;9.10;;;7.77;;
10122;SDS011;5101;49.038;8.710;2023-02-28T16:40:48;10.87;;;8.10;;
10122;SDS011;5101;49.038;8.710;2023-02-28T16:43:16;9.07;;;7.57;;
10122;SDS011;5101;49.038;8.710;2023-02-28T16:45:44;11.70;;;8.50;;
10122;SDS011;5101;49.038;8.710;2023-02-28T16:48:14;9.63;;;8.27;;
10122;SDS011;5101;49.038;8.710;2023-02-28T16:50:41;11.07;;;7.53;;
10122;SDS011;5101;49.038;8.710;2023-02-28T16:53:07;10.13;;;8.60;;
10122;SDS011;5101;49.038;8.710;2023-02-28T16:55:33;10.87;;;8.27;;
10122;SDS011;5101;49.038;8.710;2023-02-28T16:58:00;9.80;;;8.17;;
10122;SDS011;5101;49.038;8.710;2023-02-28T17:00:27;9.67;;;8.33;;
10122;SDS011;5101;49.038;8.710;2023-02-28T17:02:54;9.93;;;8.23;;
10122;SDS011;5101;49.038;8.710;2023-02-28T17:05:20;12.07;;;8.53;;
10122;SDS011;5101;49.038;8.710;2023-02-28T17:07:46;9.87;;;8.13;;
10122;SDS011;5101;49.038;8.710;2023-02-28T17:10:26;10.83;;;8.53;;
10122;SDS011;5101;49.038;8.710;2023-02-28T17:12:52;11.10;;;8.53;;
10122;SDS011;5101;49.038;8.710;2023-02-28T17:15:18;10.17;;;8.67;;
10122;SDS011;5101;49.038;8.710;2023-02-28T17:17:45;10.93;;;8.27;;
10122;SDS011;5101;49.038;8.710;2023-02-28T17:20:15;9.43;;;8.43;;
10122;SDS011;5101;49.038;8.710;2023-02-28T17:22:43;11.13;;;9.00;;
10122;SDS011;5101;49.038;8.710;2023-02-28T17:25:08;10.40;;;8.17;;
10122;SDS011;5101;49.038;8.710;2023-02-28T17:27:35;11.13;;;8.80;;
10122;SDS011;5101;49.038;8.710;2023-02-28T17:30:02;11.83;;;8.93;;
10122;SDS011;5101;49.038;8.710;2023-02-28T17:32:33;8.80;;;7.90;;